createdAt,value
2023-12-17T00:00:49.320Z,7.78
2023-12-17T00:03:20.120Z,6.75
2023-12-17T00:05:49.203Z,6.50
2023-12-17T00:08:21.416Z,7.18
2023-12-17T00:10:50.810Z,8.07
2023-12-17T00:13:18.217Z,7.43
2023-12-17T00:15:44.964Z,7.78
2023-12-17T00:18:12.982Z,7.22
2023-12-17T00:20:40.098Z,8.57
2023-12-17T00:23:09.813Z,8.07
2023-12-17T00:25:37.043Z,7.95
2023-12-17T00:28:03.829Z,8.18
2023-12-17T00:30:31.431Z,7.80
2023-12-17T00:32:59.054Z,8.90
2023-12-17T00:35:25.874Z,9.23
2023-12-17T00:37:52.645Z,9.68
2023-12-17T00:40:22.282Z,9.23
2023-12-17T00:42:49.032Z,8.93
2023-12-17T00:45:15.788Z,9.07
2023-12-17T00:47:42.897Z,8.68
2023-12-17T00:50:12.717Z,9.10
2023-12-17T00:52:40.183Z,9.75
2023-12-17T00:55:07.562Z,9.32
2023-12-17T00:57:34.609Z,8.88
2023-12-17T01:00:01.505Z,7.57
2023-12-17T01:02:28.422Z,7.50
2023-12-17T01:04:55.177Z,9.27
2023-12-17T01:07:24.625Z,8.50
2023-12-17T01:09:51.432Z,9.15
2023-12-17T01:12:21.230Z,9.30
2023-12-17T01:14:50.975Z,8.48
2023-12-17T01:17:17.766Z,8.45
2023-12-17T01:19:48.015Z,9.23
2023-12-17T01:22:18.562Z,8.50
2023-12-17T01:24:45.433Z,8.45
2023-12-17T01:27:12.187Z,8.63
2023-12-17T01:29:41.764Z,9.32
2023-12-17T01:32:10.253Z,10.25
2023-12-17T01:34:39.879Z,10.10
2023-12-17T01:37:14.761Z,9.68
2023-12-17T01:39:41.498Z,9.95
2023-12-17T01:42:10.410Z,9.80
2023-12-17T01:44:37.184Z,11.68
2023-12-17T01:47:04.044Z,10.82
2023-12-17T01:49:32.153Z,9.75
2023-12-17T01:51:59.011Z,10.45
2023-12-17T01:54:26.065Z,10.45
2023-12-17T01:56:53.802Z,9.18
2023-12-17T01:59:20.629Z,10.30
2023-12-17T02:01:48.141Z,9.30
2023-12-17T02:04:15.416Z,9.15
2023-12-17T02:06:42.733Z,9.38
2023-12-17T02:09:09.736Z,8.73
2023-12-17T02:11:36.682Z,9.32
2023-12-17T02:14:06.183Z,9.38
2023-12-17T02:16:33.718Z,9.68
2023-12-17T02:19:02.721Z,10.05
2023-12-17T02:21:29.573Z,10.18
2023-12-17T02:23:56.891Z,10.07
2023-12-17T02:26:23.634Z,8.98
2023-12-17T02:28:50.867Z,10.15
2023-12-17T02:31:17.748Z,10.15
2023-12-17T02:33:44.702Z,10.00
2023-12-17T02:36:11.679Z,10.30
2023-12-17T02:38:38.889Z,10.07
2023-12-17T02:41:05.694Z,11.00
2023-12-17T02:43:32.881Z,9.70
2023-12-17T02:45:59.627Z,10.23
2023-12-17T02:48:27.838Z,10.98
2023-12-17T02:50:54.880Z,9.98
2023-12-17T02:53:21.648Z,9.32
2023-12-17T02:55:48.849Z,9.55
2023-12-17T02:58:16.654Z,10.05
2023-12-17T03:00:43.631Z,9.52
2023-12-17T03:03:10.895Z,9.77
2023-12-17T03:05:37.841Z,10.57
2023-12-17T03:08:05.040Z,10.23
2023-12-17T03:10:31.803Z,9.45
2023-12-17T03:12:58.971Z,9.73
2023-12-17T03:15:25.749Z,10.20
2023-12-17T03:17:53.071Z,9.10
2023-12-17T03:20:19.840Z,9.25
2023-12-17T03:22:46.813Z,9.45
2023-12-17T03:25:14.418Z,9.63
2023-12-17T03:27:45.153Z,9.25
2023-12-17T03:30:12.364Z,9.68
2023-12-17T03:32:39.300Z,9.40
2023-12-17T03:35:06.799Z,9.98
2023-12-17T03:37:33.515Z,9.65
2023-12-17T03:40:00.361Z,9.00
2023-12-17T03:42:27.201Z,9.57
2023-12-17T03:44:53.981Z,9.13
2023-12-17T03:47:26.795Z,10.13
2023-12-17T03:49:56.330Z,10.65
2023-12-17T03:52:23.041Z,9.43
2023-12-17T03:54:49.796Z,9.60
2023-12-17T03:57:16.910Z,9.63
2023-12-17T03:59:43.759Z,9.07
2023-12-17T04:02:10.937Z,9.52
2023-12-17T04:04:37.659Z,9.93
2023-12-17T04:07:04.865Z,10.27
2023-12-17T04:09:31.689Z,9.73
2023-12-17T04:11:58.749Z,8.88
2023-12-17T04:14:28.202Z,9.73
2023-12-17T04:16:54.969Z,11.00
2023-12-17T04:19:29.027Z,9.43
2023-12-17T04:21:55.824Z,10.02
2023-12-17T04:24:23.026Z,9.85
2023-12-17T04:26:53.124Z,9.50
2023-12-17T04:29:22.938Z,9.98
2023-12-17T04:31:49.720Z,9.82
2023-12-17T04:34:16.922Z,9.23
2023-12-17T04:36:43.977Z,8.82
2023-12-17T04:39:16.715Z,8.63
2023-12-17T04:41:43.553Z,9.25
2023-12-17T04:44:10.854Z,9.55
2023-12-17T04:46:39.244Z,9.25
2023-12-17T04:49:06.154Z,9.32
2023-12-17T04:51:33.170Z,9.45
2023-12-17T04:53:59.871Z,9.48
2023-12-17T04:56:30.288Z,9.68
2023-12-17T04:58:56.985Z,8.90
2023-12-17T05:01:23.796Z,10.13
2023-12-17T05:03:50.992Z,9.38
2023-12-17T05:06:18.406Z,9.02
2023-12-17T05:08:45.234Z,9.65
2023-12-17T05:11:11.980Z,9.68
2023-12-17T05:13:38.710Z,9.02
2023-12-17T05:16:06.001Z,9.57
2023-12-17T05:18:32.927Z,9.40
2023-12-17T05:20:59.736Z,10.45
2023-12-17T05:23:26.969Z,8.68
2023-12-17T05:25:53.715Z,10.15
2023-12-17T05:28:20.558Z,9.35
2023-12-17T05:30:48.292Z,9.40
2023-12-17T05:33:15.219Z,9.10
2023-12-17T05:35:43.422Z,9.15
2023-12-17T05:38:10.214Z,9.55
2023-12-17T05:40:36.999Z,8.57
2023-12-17T05:43:04.801Z,8.13
2023-12-17T05:45:34.602Z,8.40
2023-12-17T05:48:01.504Z,7.57
2023-12-17T05:50:28.978Z,8.63
2023-12-17T05:52:55.713Z,7.18
2023-12-17T05:55:22.728Z,8.68
2023-12-17T05:57:51.261Z,8.27
2023-12-17T06:00:18.347Z,8.52
2023-12-17T06:02:45.240Z,8.13
2023-12-17T06:05:12.384Z,7.55
2023-12-17T06:07:39.425Z,8.07
2023-12-17T06:10:07.298Z,7.85
2023-12-17T06:12:34.114Z,8.10
2023-12-17T06:15:00.862Z,8.57
2023-12-17T06:17:28.216Z,8.48
2023-12-17T06:19:55.079Z,8.85
2023-12-17T06:22:21.941Z,7.75
2023-12-17T06:24:48.655Z,8.10
2023-12-17T06:27:19.249Z,7.75
2023-12-17T06:29:48.339Z,8.13
2023-12-17T06:32:15.115Z,8.18
2023-12-17T06:34:43.215Z,8.40
2023-12-17T06:37:11.875Z,8.60
2023-12-17T06:39:43.094Z,9.25
2023-12-17T06:42:11.127Z,7.45
2023-12-17T06:44:40.838Z,8.15
2023-12-17T06:47:17.914Z,8.05
2023-12-17T06:49:49.573Z,7.85
2023-12-17T06:52:16.873Z,7.45
2023-12-17T06:54:43.666Z,7.57
2023-12-17T06:57:13.082Z,7.03
2023-12-17T06:59:39.933Z,7.30
2023-12-17T07:02:06.770Z,8.48
2023-12-17T07:04:33.847Z,7.35
2023-12-17T07:07:00.741Z,8.18
2023-12-17T07:09:27.588Z,7.85
2023-12-17T07:11:54.869Z,7.03
2023-12-17T07:14:21.791Z,7.47
2023-12-17T07:16:50.322Z,7.93
2023-12-17T07:19:18.359Z,7.20
2023-12-17T07:21:45.754Z,6.97
2023-12-17T07:24:12.795Z,6.68
2023-12-17T07:26:39.790Z,7.25
2023-12-17T07:29:06.682Z,7.35
2023-12-17T07:31:33.450Z,7.13
2023-12-17T07:34:01.002Z,7.55
2023-12-17T07:36:28.003Z,7.80
2023-12-17T07:38:54.862Z,8.55
2023-12-17T07:41:22.606Z,8.45
2023-12-17T07:43:49.375Z,8.90
2023-12-17T07:46:16.418Z,8.68
2023-12-17T07:48:43.278Z,9.32
2023-12-17T07:51:10.148Z,10.07
2023-12-17T07:53:36.924Z,9.77
2023-12-17T07:56:03.978Z,10.25
2023-12-17T07:58:32.774Z,10.18
2023-12-17T08:00:59.706Z,9.63
2023-12-17T08:03:26.919Z,10.60
2023-12-17T08:05:54.153Z,10.25
2023-12-17T08:08:24.030Z,9.35
2023-12-17T08:10:54.176Z,10.57
2023-12-17T08:13:20.893Z,8.90
2023-12-17T08:15:47.628Z,8.10
2023-12-17T08:18:16.116Z,8.65
2023-12-17T08:20:42.972Z,8.88
2023-12-17T08:23:09.712Z,8.75
2023-12-17T08:25:39.539Z,8.52
2023-12-17T08:28:06.750Z,8.52
2023-12-17T08:30:39.151Z,7.40
2023-12-17T08:33:06.123Z,7.43
2023-12-17T08:35:39.094Z,7.68
2023-12-17T08:38:07.302Z,8.00
2023-12-17T08:40:41.045Z,7.28
2023-12-17T08:43:08.972Z,8.05
2023-12-17T08:45:36.258Z,8.43
2023-12-17T08:48:03.870Z,7.53
2023-12-17T08:50:30.947Z,6.85
2023-12-17T08:52:57.664Z,6.72
2023-12-17T08:55:25.701Z,6.55
2023-12-17T08:57:54.028Z,7.28
2023-12-17T09:00:21.099Z,5.32
2023-12-17T09:02:51.006Z,4.80
2023-12-17T09:05:20.486Z,4.78
2023-12-17T09:07:47.260Z,4.32
2023-12-17T09:10:13.976Z,4.95
2023-12-17T09:12:44.136Z,4.07
2023-12-17T09:15:11.069Z,5.10
2023-12-17T09:17:46.390Z,4.60
2023-12-17T09:20:14.959Z,4.65
2023-12-17T09:22:42.092Z,3.10
2023-12-17T09:25:12.396Z,3.45
2023-12-17T09:27:40.343Z,3.13
2023-12-17T09:30:10.495Z,2.58
2023-12-17T09:32:37.505Z,3.00
2023-12-17T09:35:04.670Z,2.85
2023-12-17T09:37:36.928Z,2.60
2023-12-17T09:40:05.038Z,2.90
2023-12-17T09:42:32.084Z,3.38
2023-12-17T09:45:00.268Z,3.08
2023-12-17T09:47:27.182Z,3.67
2023-12-17T09:49:54.042Z,3.55
2023-12-17T09:52:22.477Z,4.03
2023-12-17T09:54:50.412Z,3.17
2023-12-17T09:57:20.398Z,3.85
2023-12-17T09:59:48.392Z,4.53
2023-12-17T10:02:16.128Z,3.72
2023-12-17T10:04:43.364Z,4.32
2023-12-17T10:07:10.147Z,4.03
2023-12-17T10:09:37.175Z,3.30
2023-12-17T10:12:04.165Z,3.90
2023-12-17T10:14:31.594Z,3.55
2023-12-17T10:16:59.326Z,3.88
2023-12-17T10:19:29.764Z,3.92
2023-12-17T10:21:56.887Z,3.90
2023-12-17T10:24:39.479Z,4.43
2023-12-17T10:27:16.642Z,4.55
2023-12-17T10:29:45.185Z,5.15
2023-12-17T10:32:13.581Z,5.13
2023-12-17T10:34:43.600Z,6.45
2023-12-17T10:37:14.640Z,6.38
2023-12-17T10:39:41.583Z,6.38
2023-12-17T10:42:09.822Z,6.20
2023-12-17T10:44:40.004Z,6.45
2023-12-17T10:47:07.546Z,7.25
2023-12-17T10:49:35.326Z,7.40
2023-12-17T10:52:03.208Z,7.05
2023-12-17T10:54:31.884Z,8.43
2023-12-17T10:57:02.096Z,7.45
2023-12-17T10:59:38.222Z,7.30
2023-12-17T11:02:09.303Z,7.88
2023-12-17T11:04:36.196Z,7.38
2023-12-17T11:07:03.537Z,8.45
2023-12-17T11:09:30.508Z,8.00
2023-12-17T11:12:05.621Z,8.05
2023-12-17T11:14:32.963Z,9.73
2023-12-17T11:17:03.644Z,9.40
2023-12-17T11:19:30.894Z,9.70
2023-12-17T11:22:00.682Z,9.82
2023-12-17T11:24:27.539Z,7.97
2023-12-17T11:26:54.841Z,9.32
2023-12-17T11:29:39.307Z,9.40
2023-12-17T11:32:10.057Z,9.40
2023-12-17T11:34:37.536Z,8.23
2023-12-17T11:37:07.003Z,11.40
2023-12-17T11:39:37.063Z,10.52
2023-12-17T11:42:05.985Z,8.50
2023-12-17T11:44:33.197Z,9.45
2023-12-17T11:47:00.002Z,9.50
2023-12-17T11:49:29.937Z,9.60
2023-12-17T11:51:56.736Z,10.32
2023-12-17T11:54:24.851Z,8.80
2023-12-17T11:56:54.551Z,9.02
2023-12-17T11:59:36.778Z,8.85
2023-12-17T12:02:04.427Z,8.05
2023-12-17T12:04:42.392Z,8.30
2023-12-17T12:07:09.868Z,9.57
2023-12-17T12:09:36.879Z,7.88
2023-12-17T12:12:15.072Z,8.82
2023-12-17T12:14:41.952Z,8.23
2023-12-17T12:17:08.758Z,8.15
2023-12-17T12:19:48.549Z,9.82
2023-12-17T12:22:15.412Z,9.70
2023-12-17T12:24:42.418Z,9.52
2023-12-17T12:27:12.087Z,6.78
2023-12-17T12:29:39.262Z,8.20
2023-12-17T12:32:07.197Z,8.65
2023-12-17T12:34:40.372Z,8.32
2023-12-17T12:37:07.334Z,8.63
2023-12-17T12:39:59.210Z,9.38
2023-12-17T12:42:32.458Z,8.30
2023-12-17T12:44:59.408Z,9.68
2023-12-17T12:47:32.018Z,11.05
2023-12-17T12:49:59.125Z,10.25
2023-12-17T12:52:27.175Z,10.18
2023-12-17T12:54:55.385Z,9.63
2023-12-17T12:57:25.790Z,10.18
2023-12-17T12:59:55.489Z,10.63
2023-12-17T13:02:27.760Z,10.82
2023-12-17T13:04:54.744Z,10.57
2023-12-17T13:07:22.051Z,10.50
2023-12-17T13:10:01.016Z,10.00
2023-12-17T13:12:38.649Z,10.48
2023-12-17T13:15:05.938Z,9.75
2023-12-17T13:17:32.917Z,9.77
2023-12-17T13:20:00.951Z,9.55
2023-12-17T13:22:28.254Z,9.98
2023-12-17T13:24:55.368Z,10.73
2023-12-17T13:27:22.162Z,8.70
2023-12-17T13:29:48.936Z,9.00
2023-12-17T13:32:15.733Z,9.13
2023-12-17T13:34:43.663Z,8.85
2023-12-17T13:37:14.307Z,8.70
2023-12-17T13:39:44.175Z,8.07
2023-12-17T13:42:10.939Z,8.40
2023-12-17T13:44:38.329Z,8.43
2023-12-17T13:47:05.196Z,9.35
2023-12-17T13:49:38.276Z,7.60
2023-12-17T13:52:05.582Z,8.52
2023-12-17T13:54:33.528Z,9.18
2023-12-17T13:57:01.153Z,8.77
2023-12-17T13:59:28.073Z,9.48
2023-12-17T14:01:54.785Z,9.35
2023-12-17T14:04:22.260Z,8.88
2023-12-17T14:06:49.709Z,9.50
2023-12-17T14:09:16.864Z,9.13
2023-12-17T14:11:48.103Z,7.72
2023-12-17T14:14:14.864Z,8.60
2023-12-17T14:16:43.277Z,9.02
2023-12-17T14:19:12.899Z,9.52
2023-12-17T14:21:39.778Z,9.38
2023-12-17T14:24:09.465Z,10.27
2023-12-17T14:26:40.099Z,8.73
2023-12-17T14:29:07.353Z,7.85
2023-12-17T14:31:35.719Z,9.05
2023-12-17T14:34:08.182Z,7.90
2023-12-17T14:36:38.508Z,8.77
2023-12-17T14:39:06.074Z,10.50
2023-12-17T14:41:33.036Z,8.18
2023-12-17T14:43:59.848Z,8.38
2023-12-17T14:46:29.384Z,7.93
2023-12-17T14:48:56.353Z,8.65
2023-12-17T14:51:23.713Z,8.60
2023-12-17T14:53:55.974Z,8.75
2023-12-17T14:56:25.659Z,8.68
2023-12-17T14:58:57.639Z,8.95
2023-12-17T15:01:31.729Z,8.27
2023-12-17T15:04:02.203Z,8.23
2023-12-17T15:06:29.194Z,8.68
2023-12-17T15:08:56.853Z,8.30
2023-12-17T15:11:24.016Z,9.07
2023-12-17T15:13:50.746Z,8.00
2023-12-17T15:16:17.765Z,8.45
2023-12-17T15:18:44.932Z,8.52
2023-12-17T15:21:16.756Z,9.18
2023-12-17T15:23:43.704Z,9.75
2023-12-17T15:26:11.032Z,8.65
2023-12-17T15:28:38.348Z,7.82
2023-12-17T15:31:05.676Z,8.52
2023-12-17T15:33:33.218Z,8.85
2023-12-17T15:36:00.247Z,8.88
2023-12-17T15:38:27.170Z,8.85
2023-12-17T15:40:54.548Z,9.50
2023-12-17T15:43:21.391Z,9.80
2023-12-17T15:45:48.200Z,9.30
2023-12-17T15:48:15.129Z,9.73
2023-12-17T15:50:43.959Z,9.38
2023-12-17T15:53:10.775Z,9.02
2023-12-17T15:55:37.511Z,9.40
2023-12-17T15:58:04.378Z,10.02
2023-12-17T16:00:31.159Z,9.27
2023-12-17T16:02:58.266Z,9.15
2023-12-17T16:05:25.648Z,10.00
2023-12-17T16:07:56.124Z,9.52
2023-12-17T16:10:25.728Z,9.13
2023-12-17T16:12:53.595Z,10.57
2023-12-17T16:15:21.546Z,9.30
2023-12-17T16:17:49.545Z,11.75
2023-12-17T16:20:17.668Z,12.57
2023-12-17T16:22:47.051Z,10.68
2023-12-17T16:25:14.033Z,10.90
2023-12-17T16:27:40.968Z,12.40
2023-12-17T16:30:11.562Z,12.57
2023-12-17T16:32:40.003Z,13.18
2023-12-17T16:35:09.818Z,12.45
2023-12-17T16:37:40.143Z,12.23
2023-12-17T16:40:09.935Z,12.10
2023-12-17T16:42:36.795Z,13.30
2023-12-17T16:45:04.619Z,12.20
2023-12-17T16:47:31.641Z,14.63
2023-12-17T16:50:04.245Z,13.48
2023-12-17T16:52:31.241Z,13.50
2023-12-17T16:54:58.610Z,15.00
2023-12-17T16:57:26.004Z,13.90
2023-12-17T16:59:55.806Z,13.45
2023-12-17T17:02:22.585Z,13.70
2023-12-17T17:04:50.132Z,14.40
2023-12-17T17:07:17.898Z,13.65
2023-12-17T17:09:48.918Z,14.25
2023-12-17T17:12:15.727Z,14.25
2023-12-17T17:14:45.293Z,19.05
2023-12-17T17:17:12.142Z,15.75
2023-12-17T17:19:41.953Z,19.52
2023-12-17T17:22:11.899Z,20.67
2023-12-17T17:24:40.100Z,17.77
2023-12-17T17:27:09.626Z,19.20
2023-12-17T17:29:37.526Z,20.52
2023-12-17T17:32:05.751Z,18.17
2023-12-17T17:34:35.527Z,17.35
2023-12-17T17:37:04.501Z,16.95
2023-12-17T17:39:34.176Z,17.00
2023-12-17T17:42:01.106Z,20.08
2023-12-17T17:44:32.617Z,17.85
2023-12-17T17:46:59.669Z,26.08
2023-12-17T17:49:26.800Z,24.75
2023-12-17T17:51:53.572Z,20.85
2023-12-17T17:54:21.160Z,20.70
2023-12-17T17:56:48.917Z,19.42
2023-12-17T17:59:15.638Z,19.70
2023-12-17T18:01:44.150Z,18.90
2023-12-17T18:04:11.003Z,18.13
2023-12-17T18:06:38.048Z,17.40
2023-12-17T18:09:04.833Z,18.15
2023-12-17T18:11:31.935Z,18.13
2023-12-17T18:13:59.582Z,17.83
2023-12-17T18:16:26.905Z,17.27
2023-12-17T18:18:53.840Z,19.75
2023-12-17T18:21:23.222Z,19.42
2023-12-17T18:23:53.179Z,20.33
2023-12-17T18:26:23.921Z,19.70
2023-12-17T18:28:54.644Z,20.95
2023-12-17T18:31:21.449Z,20.30
2023-12-17T18:33:48.417Z,19.90
2023-12-17T18:36:15.395Z,20.23
2023-12-17T18:38:46.428Z,23.83
2023-12-17T18:41:19.540Z,25.58
2023-12-17T18:43:47.489Z,25.52
2023-12-17T18:46:15.850Z,19.15
2023-12-17T18:48:45.718Z,16.48
2023-12-17T18:51:12.797Z,15.88
2023-12-17T18:53:40.450Z,14.40
2023-12-17T18:56:07.866Z,16.05
2023-12-17T18:58:34.927Z,16.73
2023-12-17T19:01:01.878Z,15.75
2023-12-17T19:03:29.062Z,15.45
2023-12-17T19:05:56.042Z,13.77
2023-12-17T19:08:22.912Z,14.15
2023-12-17T19:10:49.728Z,13.27
2023-12-17T19:13:18.416Z,13.65
2023-12-17T19:15:46.536Z,13.00
2023-12-17T19:18:13.586Z,15.13
2023-12-17T19:20:41.338Z,14.35
2023-12-17T19:23:08.291Z,14.27
2023-12-17T19:25:35.266Z,13.77
2023-12-17T19:28:02.468Z,15.48
2023-12-17T19:30:29.555Z,17.05
2023-12-17T19:32:57.009Z,18.50
2023-12-17T19:35:24.005Z,15.57
2023-12-17T19:37:52.511Z,14.23
2023-12-17T19:40:20.406Z,15.18
2023-12-17T19:42:47.292Z,13.38
2023-12-17T19:45:15.997Z,13.65
2023-12-17T19:47:46.492Z,12.10
2023-12-17T19:50:18.007Z,14.30
2023-12-17T19:52:47.555Z,10.57
2023-12-17T19:55:16.614Z,10.27
2023-12-17T19:57:43.708Z,8.82
2023-12-17T20:00:12.093Z,11.98
2023-12-17T20:02:52.416Z,14.68
2023-12-17T20:05:21.977Z,12.77
2023-12-17T20:07:50.259Z,9.10
2023-12-17T20:10:22.870Z,9.52
2023-12-17T20:12:52.804Z,9.07
2023-12-17T20:15:23.328Z,8.88
2023-12-17T20:17:50.237Z,8.63
2023-12-17T20:20:19.700Z,7.40
2023-12-17T20:22:47.022Z,7.00
2023-12-17T20:25:13.747Z,7.95
2023-12-17T20:27:43.204Z,7.75
2023-12-17T20:30:10.682Z,7.68
2023-12-17T20:32:37.591Z,7.47
2023-12-17T20:35:05.290Z,7.60
2023-12-17T20:37:34.314Z,7.75
2023-12-17T20:40:01.048Z,7.38
2023-12-17T20:42:33.909Z,7.40
2023-12-17T20:45:00.819Z,12.52
2023-12-17T20:47:27.877Z,7.40
2023-12-17T20:49:54.890Z,8.05
2023-12-17T20:52:21.682Z,7.72
2023-12-17T20:54:58.540Z,7.15
2023-12-17T20:57:31.525Z,7.28
2023-12-17T20:59:58.995Z,7.72
2023-12-17T21:02:25.833Z,7.03
2023-12-17T21:04:52.752Z,6.80
2023-12-17T21:07:21.608Z,6.75
2023-12-17T21:09:48.906Z,7.05
2023-12-17T21:12:15.836Z,6.45
2023-12-17T21:14:42.825Z,7.20
2023-12-17T21:17:09.984Z,5.97
2023-12-17T21:19:39.761Z,6.60
2023-12-17T21:22:06.949Z,8.10
2023-12-17T21:24:35.102Z,6.60
2023-12-17T21:27:03.788Z,7.28
2023-12-17T21:29:31.272Z,7.25
2023-12-17T21:31:58.048Z,8.88
2023-12-17T21:34:24.858Z,8.98
2023-12-17T21:36:51.727Z,10.98
2023-12-17T21:39:19.146Z,8.02
2023-12-17T21:41:47.383Z,8.07
2023-12-17T21:44:14.241Z,6.78
2023-12-17T21:46:41.124Z,6.68
2023-12-17T21:49:10.824Z,6.22
2023-12-17T21:51:38.799Z,7.95
2023-12-17T21:54:05.666Z,6.80
2023-12-17T21:56:33.298Z,7.40
2023-12-17T21:59:03.390Z,5.95
2023-12-17T22:01:30.376Z,6.43
2023-12-17T22:03:59.975Z,5.25
2023-12-17T22:06:29.401Z,4.68
2023-12-17T22:09:01.121Z,4.40
2023-12-17T22:11:32.753Z,5.20
2023-12-17T22:13:59.594Z,5.72
2023-12-17T22:16:26.708Z,4.65
2023-12-17T22:18:56.384Z,4.88
2023-12-17T22:21:27.263Z,5.30
2023-12-17T22:23:54.128Z,5.90
2023-12-17T22:26:31.290Z,6.43
2023-12-17T22:28:58.130Z,5.72
2023-12-17T22:31:25.037Z,5.60
2023-12-17T22:33:51.826Z,5.28
2023-12-17T22:36:18.769Z,4.90
2023-12-17T22:38:52.693Z,4.65
2023-12-17T22:41:22.654Z,4.70
2023-12-17T22:43:49.509Z,4.45
2023-12-17T22:46:20.222Z,4.07
2023-12-17T22:48:47.289Z,3.97
2023-12-17T22:51:17.411Z,3.78
2023-12-17T22:53:44.881Z,3.55
2023-12-17T22:56:11.604Z,3.70
2023-12-17T22:58:38.900Z,4.13
2023-12-17T23:01:05.869Z,3.83
2023-12-17T23:03:33.048Z,4.05
2023-12-17T23:05:59.866Z,3.92
2023-12-17T23:08:27.289Z,3.53
2023-12-17T23:10:54.147Z,3.17
2023-12-17T23:13:20.868Z,3.28
2023-12-17T23:15:47.696Z,2.72
2023-12-17T23:18:17.399Z,2.95
2023-12-17T23:20:44.741Z,3.63
2023-12-17T23:23:11.476Z,3.03
2023-12-17T23:25:38.954Z,2.92
2023-12-17T23:28:06.175Z,3.15
2023-12-17T23:30:35.744Z,3.50
2023-12-17T23:33:03.291Z,3.72
2023-12-17T23:35:30.181Z,3.22
2023-12-17T23:37:56.826Z,3.50
2023-12-17T23:40:23.548Z,3.30
2023-12-17T23:42:50.717Z,3.35
2023-12-17T23:45:17.827Z,3.25
2023-12-17T23:47:44.824Z,3.58
2023-12-17T23:50:11.751Z,3.25
2023-12-17T23:52:38.859Z,3.22
2023-12-17T23:55:10.792Z,3.53
2023-12-17T23:57:37.876Z,3.47
